STATION HISTORICAL DATA FROM WUNDERGROUND.COM FOR HIGH PARK VILLAGE,TORONTO,ON,CANADA
Daily Summary for June 16, 2019 Units:  English    Metric   Both
Next Day »
Daily Weekly Monthly Yearly Custom
  High: Low: Average:
Temperature: 83.5 °F 55.3 °F 63.2 °F
Dew Point: 56.4 °F 47.8 °F 50.7 °F
Humidity: 83% 37% 65%
Wind Speed: 4.6mph 0mph 0.4mph
Wind Gust: 2.4mph - -
Wind- - WSW
Pressure: 29.93 in 29.83 in -
Precipitation: 0 in    
Historical Graphs
 
 
Tabular Data for June 16, 2019
Time Temperature Dew Point Pressure Wind Wind Speed Wind Gust Humidity Rainfall Rate (Hourly) Solar Conditions
00:04 61.3 °F 55.4 °F 29.86 in NW 1.2 mph 0.5 mph 81% 0 in 0.00 W/m2
00:09 61.2 °F 55.3 °F 29.86 in NW 1.2 mph 0.2 mph 81% 0 in 0.00 W/m2
00:14 61.2 °F 55.7 °F 29.85 in NW 1.2 mph   82% 0 in 0.00 W/m2
00:19 61.2 °F 55.7 °F 29.86 in NW 1.2 mph 0.1 mph 82% 0 in 0.00 W/m2
00:24 61.3 °F 55.8 °F 29.86 in Calm     82% 0 in 0.00 W/m2
00:29 61.3 °F 55.8 °F 29.86 in Calm     82% 0 in 0.00 W/m2
00:34 61.5 °F 56.3 °F 29.86 in Calm     83% 0 in 0.00 W/m2
00:39 61.5 °F 56.3 °F 29.86 in Calm     83% 0 in 0.00 W/m2
00:44 61.6 °F 56.4 °F 29.86 in NNW 3 mph 0.2 mph 83% 0 in 0.00 W/m2
00:49 61.4 °F 56.2 °F 29.86 in West 1.2 mph 0.1 mph 83% 0 in 0.00 W/m2
00:54 61.3 °F 56.1 °F 29.86 in NNW 1.2 mph 0.1 mph 83% 0 in 0.00 W/m2
00:59 61.3 °F 56.1 °F 29.86 in Calm     83% 0 in 0.00 W/m2
01:04 61.2 °F 56 °F 29.86 in Calm     83% 0 in 0.00 W/m2
01:09 61.3 °F 56.1 °F 29.86 in Calm     83% 0 in 0.00 W/m2
01:14 61.3 °F 56.1 °F 29.86 in NW 1.2 mph 0.1 mph 83% 0 in 0.00 W/m2
01:19 61.3 °F 56.1 °F 29.86 in Calm     83% 0 in 0.00 W/m2
01:24 61.3 °F 56.1 °F 29.86 in Calm     83% 0 in 0.00 W/m2
01:29 61.2 °F 56 °F 29.86 in Calm     83% 0 in 0.00 W/m2
01:34 61.2 °F 56 °F 29.86 in Calm     83% 0 in 0.00 W/m2
01:39 61.2 °F 56 °F 29.86 in Calm     83% 0 in 0.00 W/m2
01:44 61.1 °F 55.9 °F 29.86 in Calm     83% 0 in 0.00 W/m2
01:49 61.1 °F 55.9 °F 29.85 in Calm     83% 0 in 0.00 W/m2
01:54 61 °F 55.8 °F 29.85 in Calm     83% 0 in 0.00 W/m2
01:59 60.8 °F 55.3 °F 29.85 in Calm     82% 0 in 0.00 W/m2
02:04 60.7 °F 55.2 °F 29.85 in Calm     82% 0 in 0.00 W/m2
02:09 60.5 °F 54.7 °F 29.86 in Calm     81% 0 in 0.00 W/m2
02:14 60.5 °F 54.7 °F 29.85 in Calm     81% 0 in 0.00 W/m2
02:19 60.4 °F 54.6 °F 29.85 in Calm     81% 0 in 0.00 W/m2
02:24 60.4 °F 54.2 °F 29.85 in Calm     80% 0 in 0.00 W/m2
02:29 60.4 °F 54.2 °F 29.85 in Calm     80% 0 in 0.00 W/m2
02:34 60.3 °F 54.1 °F 29.85 in Calm     80% 0 in 0.00 W/m2
02:39 60.2 °F 53.7 °F 29.85 in Calm   0.3 mph 79% 0 in 0.00 W/m2
02:44 60.1 °F 53.6 °F 29.85 in Calm     79% 0 in 0.00 W/m2
02:49 60 °F 53.5 °F 29.85 in Calm     79% 0 in 0.00 W/m2
02:54 60 °F 53.1 °F 29.85 in Calm     78% 0 in 0.00 W/m2
02:59 59.9 °F 53 °F 29.85 in Calm     78% 0 in 0.00 W/m2
03:04 59.8 °F 52.6 °F 29.84 in Calm     77% 0 in 0.00 W/m2
03:09 59.7 °F 52.5 °F 29.85 in Calm     77% 0 in 0.00 W/m2
03:14 59.6 °F 52 °F 29.85 in Calm     76% 0 in 0.00 W/m2
03:19 59.5 °F 51.9 °F 29.85 in Calm     76% 0 in 0.00 W/m2
03:24 59.5 °F 51.6 °F 29.85 in Calm     75% 0 in 0.00 W/m2
03:29 59.4 °F 51.5 °F 29.85 in Calm     75% 0 in 0.00 W/m2
03:34 59.3 °F 51 °F 29.85 in Calm     74% 0 in 0.00 W/m2
03:39 59.1 °F 50.8 °F 29.85 in Calm     74% 0 in 0.00 W/m2
03:44 58.9 °F 50.6 °F 29.85 in WNW 1.2 mph 0.2 mph 74% 0 in 0.00 W/m2
03:49 58.5 °F 49.9 °F 29.85 in WNW 1.2 mph 0.2 mph 73% 0 in 0.00 W/m2
03:54 58.1 °F 49.5 °F 29.85 in NW 1.2 mph 0.9 mph 73% 0 in 0.00 W/m2
03:59 57.8 °F 49.2 °F 29.84 in NW 1.2 mph   73% 0 in 0.00 W/m2
04:04 57.7 °F 49.1 °F 29.84 in Calm   0.4 mph 73% 0 in 0.00 W/m2
04:09 57.5 °F 48.9 °F 29.84 in NW 1.2 mph 0.1 mph 73% 0 in 0.00 W/m2
04:14 57.2 °F 48.6 °F 29.84 in NW 1.2 mph 0.5 mph 73% 0 in 0.00 W/m2
04:19 56.9 °F 48.4 °F 29.84 in NNW 1.5 mph 0.1 mph 73% 0 in 0.00 W/m2
04:24 56.8 °F 48.3 °F 29.84 in NW 1.2 mph 0.1 mph 73% 0 in 0.00 W/m2
04:29 56.6 °F 48.1 °F 29.84 in Calm   0.6 mph 73% 0 in 0.00 W/m2
04:34 56.5 °F 48 °F 29.84 in NW 1.5 mph 0.1 mph 73% 0 in 0.00 W/m2
04:39 56.4 °F 47.9 °F 29.84 in NW 1.2 mph 0.3 mph 73% 0 in 0.00 W/m2
04:44 56.3 °F 47.8 °F 29.84 in Calm     73% 0 in 0.00 W/m2
04:49 56.2 °F 48 °F 29.84 in Calm     74% 0 in 0.00 W/m2
04:54 56.1 °F 47.9 °F 29.84 in Calm     74% 0 in 0.00 W/m2
04:59 56.1 °F 47.9 °F 29.83 in Calm     74% 0 in 0.00 W/m2
05:04 56 °F 47.8 °F 29.83 in Calm     74% 0 in 0.00 W/m2
05:09 56 °F 48.2 °F 29.84 in Calm     75% 0 in 0.00 W/m2 CLR
05:14 56 °F 48.2 °F 29.84 in Calm     75% 0 in 0.00 W/m2 CLR
05:19 55.9 °F 48.1 °F 29.84 in Calm     75% 0 in 0.00 W/m2 CLR
05:24 55.8 °F 48 °F 29.84 in Calm   0.3 mph 75% 0 in 0.00 W/m2 CLR
05:29 55.7 °F 47.9 °F 29.84 in WNW 1.2 mph 0.1 mph 75% 0 in 0.00 W/m2 CLR
05:34 55.5 °F 48.1 °F 29.84 in WNW 1.2 mph 0.1 mph 76% 0 in 0.00 W/m2 CLR
05:39 55.4 °F 48 °F 29.84 in Calm     76% 0 in 0.00 W/m2 CLR
05:44 55.3 °F 47.9 °F 29.84 in Calm     76% 0 in 0.00 W/m2 CLR
05:49 55.3 °F 48.2 °F 29.83 in Calm     77% 0 in 0.00 W/m2 CLR
05:54 55.3 °F 48.2 °F 29.84 in Calm   0.1 mph 77% 0 in 0.00 W/m2 CLR
05:59 55.3 °F 48.2 °F 29.84 in Calm     77% 0 in 0.00 W/m2 CLR
06:04 55.4 °F 48.3 °F 29.84 in Calm     77% 0 in 5.00 W/m2 CLR
06:09 55.3 °F 48.2 °F 29.84 in Calm     77% 0 in 7.00 W/m2 CLR
06:14 55.4 °F 48.3 °F 29.85 in Calm     77% 0 in 7.00 W/m2 CLR
06:19 55.4 °F 48.3 °F 29.84 in Calm   0.1 mph 77% 0 in 9.00 W/m2 CLR
06:24 55.4 °F 48.3 °F 29.84 in WNW 1.2 mph   77% 0 in 11.00 W/m2 CLR
06:29 55.5 °F 48.4 °F 29.84 in Calm     77% 0 in 11.00 W/m2 CLR
06:34 55.5 °F 48.4 °F 29.84 in Calm     77% 0 in 11.00 W/m2 CLR
06:39 55.6 °F 48.5 °F 29.85 in Calm     77% 0 in 12.00 W/m2 CLR
06:44 55.7 °F 48.6 °F 29.85 in Calm     77% 0 in 12.00 W/m2 CLR
06:49 55.8 °F 48.7 °F 29.85 in South 1.5 mph 0.2 mph 77% 0 in 14.00 W/m2 CLR
06:54 55.9 °F 48.5 °F 29.85 in Calm     76% 0 in 14.00 W/m2 CLR
06:59 56 °F 48.6 °F 29.85 in Calm     76% 0 in 9.00 W/m2 CLR
07:04 56.2 °F 48.8 °F 29.85 in Calm     76% 0 in 14.00 W/m2 OVC
07:09 56.3 °F 48.8 °F 29.86 in Calm     76% 0 in 16.00 W/m2 OVC
07:14 56.4 °F 48.6 °F 29.85 in Calm     75% 0 in 18.00 W/m2 OVC
07:19 56.6 °F 48.8 °F 29.85 in Calm     75% 0 in 18.00 W/m2 OVC
07:24 56.8 °F 49 °F 29.85 in Calm     75% 0 in 19.00 W/m2 OVC
07:29 57 °F 49.2 °F 29.86 in Calm     75% 0 in 19.00 W/m2 OVC
07:34 57.2 °F 49 °F 29.85 in Calm     74% 0 in 21.00 W/m2 OVC
07:39 57.5 °F 49.3 °F 29.85 in Calm     74% 0 in 21.00 W/m2 OVC
07:44 57.7 °F 49.5 °F 29.85 in Calm     74% 0 in 21.00 W/m2 OVC
07:49 58 °F 49.4 °F 29.84 in Calm     73% 0 in 21.00 W/m2 OVC
07:54 58.3 °F 49.7 °F 29.84 in Calm     73% 0 in 21.00 W/m2 OVC
07:59 58.6 °F 49.6 °F 29.84 in Calm     72% 0 in 23.00 W/m2 OVC
08:04 58.9 °F 49.9 °F 29.84 in Calm     72% 0 in 21.00 W/m2 OVC
08:09 59.2 °F 49.8 °F 29.84 in Calm     71% 0 in 21.00 W/m2 OVC
08:14 59.5 °F 50.1 °F 29.85 in Calm     71% 0 in 23.00 W/m2 OVC
08:19 59.8 °F 50 °F 29.85 in SSW 1.2 mph 0.1 mph 70% 0 in 25.00 W/m2 OVC
08:24 60 °F 49.8 °F 29.85 in Calm     69% 0 in 26.00 W/m2 OVC
08:29 60.2 °F 50 °F 29.85 in Calm     69% 0 in 26.00 W/m2 OVC
08:34 60.5 °F 50.3 °F 29.85 in Calm     69% 0 in 25.00 W/m2 OVC
08:39 60.7 °F 50.1 °F 29.85 in SSW 1.2 mph 0.1 mph 68% 0 in 26.00 W/m2 OVC
08:44 60.9 °F 49.9 °F 29.85 in Calm     67% 0 in 28.00 W/m2 OVC
08:49 61.2 °F 49.8 °F 29.86 in Calm     66% 0 in 33.00 W/m2 OVC
08:54 61.4 °F 50 °F 29.86 in Calm     66% 0 in 30.00 W/m2 OVC
08:59 61.6 °F 50.1 °F 29.86 in Calm     66% 0 in 28.00 W/m2 OVC
09:04 61.8 °F 50.3 °F 29.86 in Calm     66% 0 in 42.00 W/m2 OVC
09:09 62.1 °F 50.2 °F 29.87 in Calm     65% 0 in 49.00 W/m2 OVC
09:14 62.4 °F 50.1 °F 29.86 in Calm     64% 0 in 49.00 W/m2 OVC
09:19 62.6 °F 50.3 °F 29.86 in Calm     64% 0 in 49.00 W/m2 OVC
09:24 62.9 °F 49.7 °F 29.86 in Calm     62% 0 in 42.00 W/m2 OVC
09:29 63.1 °F 49.4 °F 29.86 in Calm     61% 0 in 47.00 W/m2 OVC
09:34 63.4 °F 49.7 °F 29.86 in Calm     61% 0 in 49.00 W/m2 OVC
09:39 63.7 °F 50 °F 29.86 in Calm     61% 0 in 51.00 W/m2 OVC
09:44 63.9 °F 49.8 °F 29.86 in Calm     60% 0 in 46.00 W/m2 OVC
09:49 64.1 °F 49.5 °F 29.86 in Calm     59% 0 in 49.00 W/m2 OVC
09:54 64.3 °F 49.2 °F 29.86 in Calm     58% 0 in 77.00 W/m2 OVC
09:59 64.5 °F 49.4 °F 29.86 in Calm     58% 0 in 91.00 W/m2 OVC
10:04 64.7 °F 50.1 °F 29.86 in Calm     59% 0 in 98.00 W/m2 OVC
10:09 65 °F 49.9 °F 29.86 in SW 1.5 mph 2 mph 58% 0 in 104.00 W/m2 OVC
10:14 65.2 °F 49.6 °F 29.87 in Calm     57% 0 in 98.00 W/m2 OVC
10:19 65.4 °F 49.8 °F 29.87 in Calm     57% 0 in 88.00 W/m2 OVC
10:24 65.6 °F 50 °F 29.87 in Calm   0.1 mph 57% 0 in 77.00 W/m2 OVC
10:29 65.8 °F 49.2 °F 29.88 in Calm     55% 0 in 81.00 W/m2 OVC
10:34 65.9 °F 49.8 °F 29.87 in Calm     56% 0 in 88.00 W/m2 OVC
10:39 66.1 °F 50 °F 29.87 in Calm     56% 0 in 95.00 W/m2 OVC
10:44 66.2 °F 49.6 °F 29.87 in Calm     55% 0 in 88.00 W/m2 OVC
10:49 66.4 °F 49.8 °F 29.87 in Calm     55% 0 in 86.00 W/m2 OVC
10:54 66.5 °F 49.4 °F 29.87 in Calm     54% 0 in 93.00 W/m2 OVC
10:59 66.7 °F 49 °F 29.87 in Calm     53% 0 in 98.00 W/m2 OVC
11:04 66.9 °F 49.2 °F 29.87 in Calm     53% 0 in 116.00 W/m2 OVC
11:09 67 °F 49.3 °F 29.86 in Calm     53% 0 in 142.00 W/m2 OVC
11:14 67.2 °F 49 °F 29.86 in Calm     52% 0 in 120.00 W/m2 OVC
11:19 67.4 °F 49.2 °F 29.86 in Calm     52% 0 in 113.00 W/m2 OVC
11:24 67.5 °F 49.3 °F 29.86 in Calm     52% 0 in 121.00 W/m2 OVC
11:29 67.6 °F 49.4 °F 29.86 in Calm     52% 0 in 132.00 W/m2 OVC
11:34 67.7 °F 49.5 °F 29.86 in Calm     52% 0 in 137.00 W/m2 OVC
11:39 67.8 °F 49.5 °F 29.86 in Calm     52% 0 in 137.00 W/m2 OVC
11:44 67.9 °F 49.1 °F 29.86 in Calm     51% 0 in 144.00 W/m2 OVC
11:49 68.1 °F 49.3 °F 29.86 in Calm     51% 0 in 148.00 W/m2 OVC
11:51 65.8 °F 50.2 °F 29.88 in Calm   2 mph 57% 0 in 0.00 W/m2 OVC
11:54 68.1 °F 49.3 °F 29.86 in SW 1.2 mph   51% 0 in 151.00 W/m2 OVC
11:56 65.6 °F 50 °F 29.88 in Calm   2 mph 57% 0 in 0.00 W/m2 OVC
11:59 68.2 °F 49.4 °F 29.87 in Calm     51% 0 in 149.00 W/m2 OVC
12:04 68.2 °F 49.4 °F 29.87 in Calm     51% 0 in 151.00 W/m2 OVC
12:09 68.3 °F 49.5 °F 29.87 in Calm     51% 0 in 155.00 W/m2 OVC
12:14 68.4 °F 50.1 °F 29.87 in Calm   0.1 mph 52% 0 in 156.00 W/m2 OVC
12:19 68.4 °F 50.1 °F 29.87 in Calm     52% 0 in 153.00 W/m2 OVC
12:24 68.5 °F 50.2 °F 29.87 in Calm     52% 0 in 134.00 W/m2 OVC
12:29 68.6 °F 50.3 °F 29.87 in Calm     52% 0 in 130.00 W/m2 OVC
12:34 68.8 °F 49.9 °F 29.87 in SSW 1.2 mph 0.1 mph 51% 0 in 155.00 W/m2 OVC
12:39 68.8 °F 49.9 °F 29.87 in SSW 1.2 mph 0.2 mph 51% 0 in 158.00 W/m2 OVC
12:44 68.7 °F 49.9 °F 29.87 in Calm     51% 0 in 146.00 W/m2 OVC
12:49 68.6 °F 50.3 °F 29.86 in Calm     52% 0 in 142.00 W/m2 OVC
12:54 68.5 °F 50.7 °F 29.86 in South 3.5 mph 0.5 mph 53% 0 in 135.00 W/m2 OVC
12:59 68.3 °F 50.5 °F 29.86 in SSW 1.5 mph 0.6 mph 53% 0 in 130.00 W/m2 OVC
13:04 67.8 °F 50.6 °F 29.86 in Calm     54% 0 in 128.00 W/m2 OVC
13:09 67.5 °F 50.8 °F 29.86 in South 1.5 mph 0.9 mph 55% 0 in 132.00 W/m2 OVC
13:14 66.8 °F 50.6 °F 29.86 in South 1.2 mph 0.1 mph 56% 0 in 134.00 W/m2 OVC
13:19 66.2 °F 50.5 °F 29.86 in South 1.2 mph 0.3 mph 57% 0 in 132.00 W/m2 OVC
13:24 65.6 °F 50.9 °F 29.86 in Calm     59% 0 in 123.00 W/m2 OVC
13:29 65 °F 50.8 °F 29.87 in Calm   0.1 mph 60% 0 in 121.00 W/m2 OVC
13:34 64.3 °F 50.6 °F 29.87 in South 1.2 mph 0.2 mph 61% 0 in 120.00 W/m2 OVC
13:39 63.7 °F 50.5 °F 29.87 in South 1.5 mph 0.9 mph 62% 0 in 118.00 W/m2 OVC
13:44 62.9 °F 50.1 °F 29.87 in South 1.5 mph 0.5 mph 63% 0 in 120.00 W/m2 OVC
13:49 62.3 °F 50 °F 29.87 in SSW 1.5 mph 0.7 mph 64% 0 in 116.00 W/m2 OVC
13:54 61.8 °F 50.3 °F 29.87 in Calm     66% 0 in 114.00 W/m2 OVC
13:59 61.6 °F 50.6 °F 29.87 in SSW 1.2 mph 0.2 mph 67% 0 in 121.00 W/m2 OVC
14:04 61.5 °F 50.5 °F 29.87 in Calm     67% 0 in 127.00 W/m2 OVC
14:09 61.4 °F 50.8 °F 29.87 in South 1.2 mph 0.7 mph 68% 0 in 130.00 W/m2 OVC
14:14 61.3 °F 50.7 °F 29.87 in Calm     68% 0 in 153.00 W/m2 OVC
14:19 61.3 °F 50.7 °F 29.88 in Calm     68% 0 in 211.00 W/m2 OVC
14:24 61.4 °F 50.8 °F 29.88 in SSW 1.2 mph 0.1 mph 68% 0 in 176.00 W/m2 OVC
14:29 61.6 °F 51.3 °F 29.88 in Calm     69% 0 in 113.00 W/m2 OVC
14:34 61.8 °F 51.1 °F 29.88 in SSW 1.2 mph 0.1 mph 68% 0 in 111.00 W/m2 OVC
14:39 62 °F 50.9 °F 29.88 in Calm     67% 0 in 116.00 W/m2 OVC
14:44 62.1 °F 51 °F 29.88 in South 1.2 mph 0.3 mph 67% 0 in 121.00 W/m2 OVC
14:49 62.1 °F 50.6 °F 29.88 in South 1.2 mph   66% 0 in 174.00 W/m2 OVC
14:54 62.1 °F 51 °F 29.88 in Calm     67% 0 in 158.00 W/m2 OVC
14:59 62.2 °F 51.1 °F 29.88 in Calm     67% 0 in 121.00 W/m2 OVC
15:04 62.3 °F 50.8 °F 29.88 in Calm     66% 0 in 105.00 W/m2 OVC
15:09 62.5 °F 50.6 °F 29.88 in Calm     65% 0 in 102.00 W/m2 OVC
15:14 62.6 °F 50.7 °F 29.89 in South 1.2 mph   65% 0 in 93.00 W/m2 OVC
15:19 62.5 °F 49.7 °F 29.89 in Calm     63% 0 in 70.00 W/m2 OVC
15:24 62.4 °F 49.7 °F 29.88 in Calm     63% 0 in 77.00 W/m2 OVC
15:29 62.3 °F 49.6 °F 29.89 in Calm     63% 0 in 79.00 W/m2 OVC
15:34 62.3 °F 50 °F 29.88 in Calm   0.1 mph 64% 0 in 76.00 W/m2 OVC
15:39 62.3 °F 50 °F 29.88 in Calm     64% 0 in 74.00 W/m2 OVC
15:44 62.4 °F 50.5 °F 29.88 in Calm     65% 0 in 84.00 W/m2 OVC
15:49 62.5 °F 50.6 °F 29.89 in Calm     65% 0 in 88.00 W/m2 OVC
15:54 62.6 °F 50.7 °F 29.89 in Calm     65% 0 in 90.00 W/m2 OVC
15:59 62.8 °F 50.5 °F 29.88 in Calm     64% 0 in 102.00 W/m2 OVC
16:04 62.9 °F 50.6 °F 29.88 in Calm     64% 0 in 120.00 W/m2 OVC
16:09 63.1 °F 50.3 °F 29.88 in Calm     63% 0 in 120.00 W/m2 OVC
16:14 63.4 °F 50.6 °F 29.88 in Calm     63% 0 in 179.00 W/m2 OVC
16:19 63.6 °F 50.4 °F 29.88 in Calm     62% 0 in 137.00 W/m2 OVC
16:24 63.9 °F 50.6 °F 29.88 in Calm     62% 0 in 128.00 W/m2 OVC
16:29 64.1 °F 50.8 °F 29.88 in Calm     62% 0 in 135.00 W/m2 OVC
16:34 64.3 °F 51 °F 29.88 in Calm     62% 0 in 134.00 W/m2 OVC
16:39 64.6 °F 51.3 °F 29.89 in Calm     62% 0 in 118.00 W/m2 OVC
16:44 64.9 °F 51.1 °F 29.89 in Calm     61% 0 in 134.00 W/m2 OVC
16:49 65.3 °F 51.1 °F 29.89 in Calm     60% 0 in 156.00 W/m2 OVC
16:54 66.7 °F 51.5 °F 29.89 in Calm     58% 0 in 178.00 W/m2 OVC
16:59 67.3 °F 52 °F 29.89 in South 1.2 mph   58% 0 in 308.00 W/m2 OVC
17:04 67.9 °F 52.1 °F 29.89 in Calm     57% 0 in 156.00 W/m2 OVC
17:09 67.5 °F 51.3 °F 29.89 in Calm     56% 0 in 134.00 W/m2 OVC
17:14 67.3 °F 51.1 °F 29.89 in Calm     56% 0 in 121.00 W/m2 OVC
17:19 67 °F 50.8 °F 29.89 in Calm     56% 0 in 211.00 W/m2 OVC
17:24 67.7 °F 51.5 °F 29.89 in Calm     56% 0 in 441.00 W/m2 OVC
17:29 71 °F 53 °F 29.89 in Calm     53% 0 in 571.00 W/m2 OVC
17:34 74 °F 53.6 °F 29.88 in Calm     49% 0 in 540.00 W/m2 OVC
17:39 75.6 °F 53.4 °F 29.88 in Calm     46% 0 in 520.00 W/m2 OVC
17:44 74.8 °F 52.1 °F 29.88 in Calm     45% 0 in 504.00 W/m2 OVC
17:49 75.4 °F 53.2 °F 29.88 in Calm     46% 0 in 489.00 W/m2 OVC
17:54 79.1 °F 54.1 °F 29.88 in Calm     42% 0 in 478.00 W/m2 OVC
17:59 80.4 °F 54.6 °F 29.88 in Calm     41% 0 in 429.00 W/m2 OVC
18:04 80.6 °F 53.4 °F 29.88 in Calm   0.1 mph 39% 0 in 448.00 W/m2 OVC
18:09 78.2 °F 53.2 °F 29.88 in Calm     42% 0 in 432.00 W/m2 OVC
18:14 78.8 °F 53.1 °F 29.89 in Calm     41% 0 in 417.00 W/m2 OVC
18:19 78.4 °F 52.8 °F 29.89 in Calm   0.1 mph 41% 0 in 401.00 W/m2 OVC
18:24 78.1 °F 53.8 °F 29.89 in Calm     43% 0 in 388.00 W/m2 OVC
18:29 81.5 °F 54.9 °F 29.89 in Calm     40% 0 in 371.00 W/m2 OVC
18:34 81.9 °F 54.5 °F 29.89 in Calm     39% 0 in 357.00 W/m2 OVC
18:39 83.5 °F 55.2 °F 29.88 in Calm     38% 0 in 339.00 W/m2 OVC
18:44 82.6 °F 53.7 °F 29.88 in SSW 1.2 mph 0.3 mph 37% 0 in 322.00 W/m2 OVC
18:49 78.9 °F 52.5 °F 29.88 in SSW 1.2 mph   40% 0 in 74.00 W/m2 OVC
18:54 78.6 °F 52.9 °F 29.88 in Calm   0.1 mph 41% 0 in 33.00 W/m2 OVC
18:59 78.4 °F 52.8 °F 29.88 in Calm     41% 0 in 28.00 W/m2 OVC
19:04 77.2 °F 51.7 °F 29.88 in SSW 1.2 mph 0.5 mph 41% 0 in 46.00 W/m2 OVC
19:09 73.7 °F 50.4 °F 29.88 in SSW 1.5 mph 1.5 mph 44% 0 in 65.00 W/m2 OVC
19:14 71.5 °F 50.2 °F 29.88 in SSW 1.5 mph 0.5 mph 47% 0 in 56.00 W/m2 OVC
19:19 70.4 °F 49.8 °F 29.88 in South 3.5 mph 0.7 mph 48% 0 in 47.00 W/m2 OVC
19:24 69.5 °F 50.1 °F 29.88 in South 1.5 mph 0.6 mph 50% 0 in 51.00 W/m2 OVC
19:29 68.6 °F 49.8 °F 29.88 in South 1.5 mph 0.8 mph 51% 0 in 49.00 W/m2 OVC
19:34 67.8 °F 49.5 °F 29.88 in South 1.2 mph   52% 0 in 46.00 W/m2 OVC
19:39 67.2 °F 50 °F 29.88 in South 1.2 mph 0.4 mph 54% 0 in 46.00 W/m2 OVC
19:44 66.8 °F 49.6 °F 29.88 in SW 1.2 mph 0.2 mph 54% 0 in 37.00 W/m2 OVC
19:48 66.4 °F 49.8 °F 29.88 in SSW 1.2 mph 0.1 mph 55% 0 in 30.00 W/m2 OVC
20:04 65.6 °F 50 °F 29.88 in SSW 1.2 mph 2.2 mph 57% 0 in 26.00 W/m2 CLR
20:09 65.4 °F 49.8 °F 29.88 in SSW 1.5 mph 0.4 mph 57% 0 in 21.00 W/m2 CLR
20:14 65.2 °F 49.6 °F 29.88 in SSW 1.2 mph 0.2 mph 57% 0 in 14.00 W/m2 CLR
20:19 65 °F 49.9 °F 29.88 in SSW 1.2 mph 0.3 mph 58% 0 in 14.00 W/m2 CLR
20:24 64.6 °F 49.5 °F 29.88 in South 1.2 mph 0.6 mph 58% 0 in 14.00 W/m2 CLR
20:29 64.3 °F 49.7 °F 29.88 in South 1.2 mph 0.1 mph 59% 0 in 9.00 W/m2 CLR
20:34 64 °F 49.4 °F 29.88 in South 1.5 mph 0.1 mph 59% 0 in 7.00 W/m2 CLR
20:39 63.7 °F 49.6 °F 29.89 in Calm     60% 0 in 5.00 W/m2 CLR
20:44 63.5 °F 49.4 °F 29.89 in Calm     60% 0 in 0.00 W/m2 CLR
20:49 63.3 °F 49.2 °F 29.89 in Calm     60% 0 in 0.00 W/m2 CLR
20:54 63.2 °F 49.1 °F 29.89 in South 1.2 mph 0.1 mph 60% 0 in 0.00 W/m2 CLR
20:59 63 °F 48.9 °F 29.89 in Calm     60% 0 in 0.00 W/m2 CLR
21:04 62.9 °F 48.4 °F 29.89 in Calm     59% 0 in 0.00 W/m2 CLR
21:09 62.9 °F 48.8 °F 29.89 in South 1.2 mph   60% 0 in 0.00 W/m2 CLR
21:14 62.9 °F 48.8 °F 29.89 in Calm     60% 0 in 0.00 W/m2 CLR
21:19 62.8 °F 48.7 °F 29.89 in Calm     60% 0 in 0.00 W/m2 CLR
21:24 62.8 °F 49.2 °F 29.90 in Calm     61% 0 in 0.00 W/m2 CLR
21:29 62.8 °F 49.2 °F 29.90 in Calm     61% 0 in 0.00 W/m2 CLR
21:34 62.8 °F 49.2 °F 29.90 in Calm     61% 0 in 0.00 W/m2 CLR
21:39 62.8 °F 49.6 °F 29.90 in Calm     62% 0 in 0.00 W/m2
21:44 62.8 °F 50 °F 29.91 in Calm     63% 0 in 0.00 W/m2
21:49 62.7 °F 49.9 °F 29.91 in Calm     63% 0 in 0.00 W/m2
21:54 62.6 °F 49.8 °F 29.91 in Calm     63% 0 in 0.00 W/m2
21:59 62.3 °F 49.6 °F 29.92 in South 3.5 mph 0.6 mph 63% 0 in 0.00 W/m2
22:04 62 °F 49.3 °F 29.92 in Calm     63% 0 in 0.00 W/m2
22:09 61.9 °F 49.2 °F 29.92 in Calm     63% 0 in 0.00 W/m2
22:14 61.7 °F 49 °F 29.93 in NNW 1.2 mph   63% 0 in 0.00 W/m2
22:19 61.4 °F 49.1 °F 29.93 in Calm     64% 0 in 0.00 W/m2
22:24 61.3 °F 49 °F 29.93 in Calm     64% 0 in 0.00 W/m2
22:29 61.3 °F 49 °F 29.92 in Calm     64% 0 in 0.00 W/m2
22:34 61.2 °F 48.9 °F 29.92 in Calm     64% 0 in 0.00 W/m2
22:39 61.2 °F 48.9 °F 29.93 in Calm     64% 0 in 0.00 W/m2
22:44 61.3 °F 49 °F 29.93 in Calm     64% 0 in 0.00 W/m2
22:49 61.3 °F 49.5 °F 29.93 in Calm     65% 0 in 0.00 W/m2
22:54 61.3 °F 49 °F 29.93 in Calm     64% 0 in 0.00 W/m2
22:59 61.3 °F 49 °F 29.93 in Calm     64% 0 in 0.00 W/m2
23:04 61.3 °F 49 °F 29.93 in Calm     64% 0 in 0.00 W/m2
23:09 61.3 °F 49 °F 29.93 in Calm     64% 0 in 0.00 W/m2
23:14 61.4 °F 49.1 °F 29.93 in Calm     64% 0 in 0.00 W/m2
23:19 61.4 °F 49.1 °F 29.93 in Calm     64% 0 in 0.00 W/m2
23:24 61.4 °F 49.5 °F 29.93 in NNW 1.2 mph 0.3 mph 65% 0 in 0.00 W/m2
23:29 61.4 °F 49.5 °F 29.93 in Calm   0.2 mph 65% 0 in 0.00 W/m2
23:34 61.3 °F 50.3 °F 29.93 in NNW 4.6 mph 1.9 mph 67% 0 in 0.00 W/m2
23:39 61 °F 50.4 °F 29.93 in NNW 3.5 mph 2.4 mph 68% 0 in 0.00 W/m2
23:44 60.5 °F 50.3 °F 29.93 in NNW 3.5 mph 1.2 mph 69% 0 in 0.00 W/m2
23:49 60.1 °F 50.3 °F 29.93 in NNW 3.5 mph 0.6 mph 70% 0 in 0.00 W/m2
23:54 59.7 °F 50.3 °F 29.93 in NNW 3.5 mph 1.3 mph 71% 0 in 0.00 W/m2
23:59 59.4 °F 50.4 °F 29.93 in Calm     72% 0 in 0.00 W/m2
High Park Village Arhives